Terminal Aerodrome Forecast
Issued by NWS

Home | Current Version | Previous Version | Text Only | Print | Product List | Glossary On
Versions: 1 2 3 4 5 6 7 8 9 10 11 12 13 14 15 16 17
409
FTUS43 KMQT 250522
TAFSAW
TAF
KSAW 250522Z 2506/2606 01005KT 1/2SM FG OVC001
      TEMPO 2507/2511 1/4SM FG VV001
     FM251400 04005KT 6SM BR BKN007
     FM251700 08005KT P6SM BKN090
     FM260000 13003KT P6SM -SHRA OVC080=

USA.gov is the U.S. government's official web portal to all federal, state and local government web resources and services.